03:31
Airports
History
Links
Donate
Help keep this website running!
PayPal
Bitcoin
Information on this page is community maintained and may be outdated or inaccurate and is intended for reference only or PC simulator navigating.
Always use approved charts for navigating.
SJQK
Barra do Vento
Barra do Vento (SJQK)
Boa Vista, Roraima, Brazil
4
Lat/Lng:2° 41' 44" N / 60° 48' 51" W
2.695556 / -60.814167
Elevation:279'ft 85mMSL
ID / ICAO:SJQK
Runways:1
Longest:(08-26) 997.8m 3,274ft Dirt
Distance To
Airport ID:
Nearby VORs <50NM
Nearby NDBs
Nearby WeatherUpdated 06-27-17 03:00 GMT
Nearby weather at SBBV, Boa Vista Intl located 13.5 nautical miles from SJQK
Altimeter: 29.91
Visibility: 6.2 statute miles
Wind: 3 knots (210°)
Temp: 25°c 77°f
Humidity: 94.2%

METAR: SBBV 270300Z 21003KT 9999 FEW015 FEW020TCU OVC070 25/24 Q1013

(Powered by phpweather)
Runway 08 / 26
Dimensions:997.8 x 18m 3274' x 59'ft
Surface:Dirt
Runway 08 [A]Runway 26 [B]
Heading:065°TH 245°TH
Lat:
Lng:
2° 41' 37.24"N
60° 49' 5.74"W
2° 41' 50.76"N
60° 48' 36.26"W
User Notes and Comments
Google Map
Nearby Airports
4 Estancia Norteagro 2.8 NM
SWQR ESE 119°
(C) Boa Vista Intl 13.5 NM
SBBV (WX) NE 39°
4 Novo Intento 14.8 NM
SWNN ENE 66°
(U) Pouso da Aguia 16.8 NM
SWPD ENE 68°
4 Ouro Fino 18.0 NM
SWOF NNE 21°
4 Fazenda Sao Marco 33.4 NM
SWSK NE 42°
4 Manoa - Pium 53.4 NM
SJLP ENE 68°
VFR Chart
Flight Planning at SkyVector.com